createdAt,value
2018-03-31T00:00:06.455Z,43.60
2018-03-31T00:02:33.477Z,41.87
2018-03-31T00:05:00.484Z,42.67
2018-03-31T00:07:27.484Z,44.27
2018-03-31T00:09:54.794Z,46.47
2018-03-31T00:12:21.806Z,43.93
2018-03-31T00:14:48.799Z,45.93
2018-03-31T00:17:15.806Z,43.27
2018-03-31T00:19:42.809Z,48.43
2018-03-31T00:22:09.802Z,48.37
2018-03-31T00:24:36.827Z,42.10
2018-03-31T00:27:04.735Z,47.80
2018-03-31T00:29:32.503Z,45.13
2018-03-31T00:31:59.532Z,49.53
2018-03-31T00:34:27.297Z,50.73
2018-03-31T00:36:55.070Z,47.87
2018-03-31T00:39:22.859Z,49.50
2018-03-31T00:41:49.870Z,47.53
2018-03-31T00:44:16.882Z,49.03
2018-03-31T00:46:44.496Z,48.03
2018-03-31T00:49:11.500Z,50.07
2018-03-31T00:51:38.492Z,46.10
2018-03-31T00:54:05.522Z,46.73
2018-03-31T00:56:32.583Z,45.87
2018-03-31T00:58:59.584Z,51.07
2018-03-31T01:01:26.606Z,46.93
2018-03-31T01:03:53.608Z,49.10
2018-03-31T01:06:20.644Z,49.93
2018-03-31T01:08:47.653Z,46.23
2018-03-31T01:11:14.659Z,45.73
2018-03-31T01:13:42.427Z,47.77
2018-03-31T01:16:10.226Z,51.17
2018-03-31T01:18:37.231Z,51.43
2018-03-31T01:21:04.999Z,51.17
2018-03-31T01:23:32.797Z,50.77
2018-03-31T01:25:59.796Z,48.60
2018-03-31T01:28:26.806Z,47.67
2018-03-31T01:30:53.835Z,49.13
2018-03-31T01:33:20.844Z,50.50
2018-03-31T01:35:47.843Z,46.53
2018-03-31T01:38:14.875Z,48.63
2018-03-31T01:40:41.879Z,50.63
2018-03-31T01:43:09.680Z,47.33
2018-03-31T01:45:36.694Z,46.20
2018-03-31T01:48:03.705Z,47.47
2018-03-31T01:50:30.690Z,51.70
2018-03-31T01:52:58.507Z,45.83
2018-03-31T01:55:25.506Z,45.57
2018-03-31T01:57:52.506Z,46.90
2018-03-31T02:00:19.509Z,45.97
2018-03-31T02:02:47.267Z,44.90
2018-03-31T02:05:15.050Z,43.77
2018-03-31T02:07:42.063Z,48.47
2018-03-31T02:10:09.839Z,49.27
2018-03-31T02:12:36.852Z,41.67
2018-03-31T02:15:03.855Z,44.17
2018-03-31T02:17:30.875Z,44.57
2018-03-31T02:19:57.886Z,44.83
2018-03-31T02:22:24.897Z,41.83
2018-03-31T02:24:51.908Z,44.17
2018-03-31T02:27:18.929Z,43.80
2018-03-31T02:29:45.950Z,42.33
2018-03-31T02:32:12.956Z,42.63
2018-03-31T02:34:39.963Z,43.33
2018-03-31T02:37:06.997Z,43.50
2018-03-31T02:39:33.996Z,41.10
2018-03-31T02:42:01.011Z,39.43
2018-03-31T02:44:28.032Z,38.90
2018-03-31T02:46:55.048Z,39.65
2018-03-31T02:49:22.811Z,41.33
2018-03-31T02:51:51.247Z,39.85
2018-03-31T02:54:18.244Z,42.33
2018-03-31T02:56:45.271Z,39.22
2018-03-31T02:59:12.273Z,39.43
2018-03-31T03:01:39.278Z,38.70
2018-03-31T03:04:07.056Z,40.50
2018-03-31T03:06:34.849Z,39.90
2018-03-31T03:09:01.916Z,37.50
2018-03-31T03:11:28.928Z,38.97
2018-03-31T03:13:55.936Z,39.55
2018-03-31T03:16:22.947Z,38.88
2018-03-31T03:18:49.953Z,37.95
2018-03-31T03:21:17.734Z,41.33
2018-03-31T03:23:44.768Z,41.05
2018-03-31T03:26:12.566Z,41.25
2018-03-31T03:28:39.576Z,39.85
2018-03-31T03:31:07.349Z,41.73
2018-03-31T03:33:35.132Z,39.05
2018-03-31T03:36:02.146Z,40.63
2018-03-31T03:38:29.922Z,42.92
2018-03-31T03:40:57.751Z,41.10
2018-03-31T03:43:24.755Z,43.10
2018-03-31T03:45:51.775Z,41.27
2018-03-31T03:48:19.536Z,39.90
2018-03-31T03:50:46.540Z,39.13
2018-03-31T03:53:13.572Z,39.23
2018-03-31T03:55:40.584Z,42.77
2018-03-31T03:58:07.593Z,39.13
2018-03-31T04:00:34.612Z,41.50
2018-03-31T04:03:01.622Z,37.38
2018-03-31T04:05:29.388Z,37.53
2018-03-31T04:07:57.184Z,38.60
2018-03-31T04:10:24.201Z,37.07
2018-03-31T04:12:51.996Z,40.08
2018-03-31T04:15:19.011Z,37.78
2018-03-31T04:17:46.778Z,39.17
2018-03-31T04:20:14.571Z,39.55
2018-03-31T04:22:41.573Z,38.53
2018-03-31T04:25:08.597Z,38.63
2018-03-31T04:27:35.616Z,38.35
2018-03-31T04:30:02.624Z,43.58
2018-03-31T04:32:29.644Z,39.27
2018-03-31T04:34:56.647Z,40.65
2018-03-31T04:37:23.684Z,38.60
2018-03-31T04:39:51.454Z,42.73
2018-03-31T04:42:18.466Z,43.60
2018-03-31T04:44:45.460Z,41.00
2018-03-31T04:47:12.471Z,42.57
2018-03-31T04:49:39.469Z,41.03
2018-03-31T04:52:06.488Z,39.73
2018-03-31T04:54:33.505Z,39.10
2018-03-31T04:57:00.515Z,39.83
2018-03-31T04:59:27.534Z,39.30
2018-03-31T05:01:54.548Z,38.37
2018-03-31T05:04:21.864Z,38.73
2018-03-31T05:06:48.878Z,38.57
2018-03-31T05:09:16.642Z,43.17
2018-03-31T05:11:43.670Z,40.58
2018-03-31T05:14:10.669Z,40.13
2018-03-31T05:16:37.725Z,40.20
2018-03-31T05:19:05.493Z,44.87
2018-03-31T05:21:32.517Z,40.80
2018-03-31T05:23:59.512Z,40.47
2018-03-31T05:26:26.546Z,38.47
2018-03-31T05:28:53.547Z,39.17
2018-03-31T05:31:20.575Z,39.50
2018-03-31T05:33:48.327Z,40.53
2018-03-31T05:36:15.330Z,36.67
2018-03-31T05:38:42.335Z,38.23
2018-03-31T05:41:10.158Z,39.60
2018-03-31T05:43:37.221Z,40.03
2018-03-31T05:46:04.291Z,38.20
2018-03-31T05:48:32.100Z,39.17
2018-03-31T05:50:59.931Z,37.05
2018-03-31T05:53:27.827Z,35.20
2018-03-31T05:55:54.869Z,38.10
2018-03-31T05:58:21.885Z,40.43
2018-03-31T06:00:49.654Z,37.43
2018-03-31T06:03:17.441Z,35.20
2018-03-31T06:05:44.462Z,37.45
2018-03-31T06:08:12.253Z,36.05
2018-03-31T06:10:39.266Z,37.53
2018-03-31T06:13:06.264Z,37.33
2018-03-31T06:15:33.283Z,36.67
2018-03-31T06:18:00.298Z,37.57
2018-03-31T06:20:27.314Z,37.20
2018-03-31T06:22:54.342Z,39.27
2018-03-31T06:25:21.359Z,39.50
2018-03-31T06:27:49.147Z,39.40
2018-03-31T06:30:16.160Z,37.10
2018-03-31T06:32:43.164Z,38.77
2018-03-31T06:35:10.182Z,37.63
2018-03-31T06:37:37.203Z,41.35
2018-03-31T06:40:04.987Z,40.87
2018-03-31T06:42:32.017Z,37.60
2018-03-31T06:44:59.782Z,39.50
2018-03-31T06:47:27.559Z,38.97
2018-03-31T06:49:54.588Z,38.50
2018-03-31T06:52:21.595Z,40.87
2018-03-31T06:54:48.599Z,40.17
2018-03-31T06:57:15.630Z,39.27
2018-03-31T06:59:42.635Z,38.93
2018-03-31T07:02:09.661Z,42.10
2018-03-31T07:04:36.667Z,41.40
2018-03-31T07:07:03.684Z,40.00
2018-03-31T07:09:30.695Z,41.73
2018-03-31T07:11:57.703Z,39.63
2018-03-31T07:14:24.699Z,38.50
2018-03-31T07:16:51.716Z,40.77
2018-03-31T07:19:18.720Z,39.07
2018-03-31T07:21:45.720Z,38.53
2018-03-31T07:24:12.723Z,40.67
2018-03-31T07:26:39.739Z,41.13
2018-03-31T07:29:06.747Z,39.47
2018-03-31T07:31:34.536Z,42.30
2018-03-31T07:34:01.541Z,39.37
2018-03-31T07:36:28.560Z,39.70
2018-03-31T07:38:55.596Z,39.60
2018-03-31T07:41:22.603Z,43.83
2018-03-31T07:43:50.375Z,40.67
2018-03-31T07:46:17.400Z,39.10
2018-03-31T07:48:44.414Z,38.23
2018-03-31T07:51:11.416Z,39.30
2018-03-31T07:53:39.185Z,38.40
2018-03-31T07:56:06.960Z,37.73
2018-03-31T07:58:33.962Z,37.70
2018-03-31T08:01:01.038Z,39.67
2018-03-31T08:03:27.987Z,37.33
2018-03-31T08:05:54.997Z,41.13
2018-03-31T08:08:21.991Z,37.97
2018-03-31T08:10:49.763Z,38.47
2018-03-31T08:13:16.783Z,38.77
2018-03-31T08:15:44.559Z,38.47
2018-03-31T08:18:12.315Z,40.67
2018-03-31T08:20:40.090Z,40.53
2018-03-31T08:23:07.926Z,41.40
2018-03-31T08:25:34.882Z,39.70
2018-03-31T08:28:01.911Z,43.17
2018-03-31T08:30:28.935Z,39.90
2018-03-31T08:32:55.957Z,39.33
2018-03-31T08:35:22.995Z,37.73
2018-03-31T08:37:50.756Z,41.43
2018-03-31T08:40:18.532Z,39.90
2018-03-31T08:42:45.542Z,40.63
2018-03-31T08:45:12.572Z,42.60
2018-03-31T08:47:39.592Z,40.10
2018-03-31T08:50:06.599Z,39.60
2018-03-31T08:52:34.437Z,39.13
2018-03-31T08:55:01.440Z,41.50
2018-03-31T08:57:28.440Z,37.07
2018-03-31T08:59:55.456Z,38.00
2018-03-31T09:02:22.449Z,36.87
2018-03-31T09:04:49.462Z,39.07
2018-03-31T09:07:16.560Z,36.27
2018-03-31T09:09:44.325Z,39.23
2018-03-31T09:12:12.127Z,35.83
2018-03-31T09:14:39.172Z,40.13
2018-03-31T09:17:06.194Z,38.27
2018-03-31T09:19:33.201Z,37.73
2018-03-31T09:22:00.265Z,41.07
2018-03-31T09:24:28.056Z,37.90
2018-03-31T09:26:55.064Z,38.90
2018-03-31T09:29:22.147Z,39.30
2018-03-31T09:31:49.143Z,40.30
2018-03-31T09:34:16.166Z,39.67
2018-03-31T09:36:43.182Z,38.17
2018-03-31T09:39:10.962Z,36.90
2018-03-31T09:41:37.990Z,37.27
2018-03-31T09:44:05.781Z,36.17
2018-03-31T09:46:32.774Z,35.80
2018-03-31T09:48:59.789Z,37.40
2018-03-31T09:51:26.776Z,37.10
2018-03-31T09:53:53.775Z,39.50
2018-03-31T09:56:20.764Z,36.77
2018-03-31T09:58:47.762Z,38.20
2018-03-31T10:01:17.725Z,35.13
2018-03-31T10:03:44.819Z,35.90
2018-03-31T10:06:11.824Z,36.90
2018-03-31T10:08:38.891Z,34.67
2018-03-31T10:11:06.672Z,35.27
2018-03-31T10:13:34.459Z,36.70
2018-03-31T10:16:01.461Z,36.87
2018-03-31T10:18:28.468Z,35.77
2018-03-31T10:20:55.499Z,40.87
2018-03-31T10:23:22.537Z,37.60
2018-03-31T10:25:49.527Z,34.57
2018-03-31T10:28:16.527Z,35.57
2018-03-31T10:30:43.570Z,36.27
2018-03-31T10:33:10.586Z,37.13
2018-03-31T10:35:37.579Z,37.73
2018-03-31T10:38:04.588Z,38.27
2018-03-31T10:40:31.587Z,34.00
2018-03-31T10:45:50.228Z,38.07
2018-03-31T10:48:17.250Z,36.07
2018-03-31T10:50:45.038Z,36.63
2018-03-31T10:53:12.812Z,37.57
2018-03-31T10:55:39.832Z,38.83
2018-03-31T10:58:06.872Z,36.30
2018-03-31T11:00:34.662Z,36.17
2018-03-31T11:03:02.443Z,33.30
2018-03-31T11:05:29.499Z,35.57
2018-03-31T11:07:57.271Z,41.77
2018-03-31T11:10:24.386Z,35.87
2018-03-31T11:12:51.476Z,43.10
2018-03-31T11:15:19.310Z,41.70
2018-03-31T11:17:46.362Z,40.13
2018-03-31T11:20:13.386Z,38.30
2018-03-31T11:22:41.173Z,36.50
2018-03-31T11:25:08.188Z,38.07
2018-03-31T11:27:35.191Z,38.33
2018-03-31T11:30:02.205Z,38.87
2018-03-31T11:32:30.015Z,41.03
2018-03-31T11:34:57.023Z,39.13
2018-03-31T11:37:24.059Z,38.73
2018-03-31T11:39:51.824Z,38.63
2018-03-31T11:42:19.630Z,38.23
2018-03-31T11:44:46.617Z,40.60
2018-03-31T11:47:13.632Z,39.50
2018-03-31T11:49:40.721Z,39.23
2018-03-31T11:52:08.609Z,39.33
2018-03-31T11:54:35.614Z,41.17
2018-03-31T11:57:02.633Z,39.20
2018-03-31T11:59:29.702Z,39.63
2018-03-31T12:01:56.723Z,39.20
2018-03-31T12:04:23.728Z,38.33
2018-03-31T12:06:51.529Z,42.20
2018-03-31T12:09:18.619Z,38.37
2018-03-31T12:11:45.633Z,38.33
2018-03-31T12:14:12.659Z,38.70
2018-03-31T12:16:40.033Z,39.80
2018-03-31T12:19:07.044Z,37.93
2018-03-31T12:21:34.828Z,37.73
2018-03-31T12:24:01.857Z,36.53
2018-03-31T12:26:29.689Z,38.17
2018-03-31T12:28:56.701Z,37.70
2018-03-31T12:31:23.713Z,39.83
2018-03-31T12:33:51.477Z,38.40
2018-03-31T12:36:19.260Z,37.23
2018-03-31T12:38:46.414Z,40.53
2018-03-31T12:41:13.452Z,38.67
2018-03-31T12:43:40.485Z,40.27
2018-03-31T12:46:08.267Z,41.83
2018-03-31T12:48:35.296Z,39.83
2018-03-31T12:51:03.092Z,41.50
2018-03-31T12:53:30.123Z,40.20
2018-03-31T12:55:57.912Z,48.90
2018-03-31T12:58:25.061Z,41.83
2018-03-31T13:00:52.084Z,45.27
2018-03-31T13:03:19.090Z,43.17
2018-03-31T13:05:46.106Z,41.37
2018-03-31T13:08:13.138Z,41.23
2018-03-31T13:10:40.168Z,42.27
2018-03-31T13:13:08.061Z,43.20
2018-03-31T13:15:35.068Z,40.27
2018-03-31T13:18:02.100Z,39.50
2018-03-31T13:20:29.180Z,41.47
2018-03-31T13:22:57.020Z,40.43
2018-03-31T13:25:24.017Z,43.57
2018-03-31T13:27:51.007Z,42.63
2018-03-31T13:30:18.034Z,41.77
2018-03-31T13:32:45.037Z,42.10
2018-03-31T13:35:12.809Z,41.10
2018-03-31T13:37:39.826Z,45.13
2018-03-31T13:40:06.838Z,40.23
2018-03-31T13:42:33.858Z,40.83
2018-03-31T13:45:00.860Z,41.30
2018-03-31T13:47:27.905Z,43.77
2018-03-31T13:49:54.961Z,42.83
2018-03-31T13:52:21.968Z,43.23
2018-03-31T13:54:48.951Z,42.93
2018-03-31T13:57:15.971Z,40.63
2018-03-31T13:59:43.043Z,46.13
2018-03-31T14:02:10.066Z,43.43
2018-03-31T14:04:37.076Z,41.77
2018-03-31T14:07:04.847Z,44.77
2018-03-31T14:09:31.847Z,40.60
2018-03-31T14:11:58.869Z,42.97
2018-03-31T14:14:25.875Z,43.63
2018-03-31T14:16:52.892Z,43.70
2018-03-31T14:19:19.887Z,43.40
2018-03-31T14:21:48.478Z,42.13
2018-03-31T14:24:16.181Z,42.40
2018-03-31T14:26:43.199Z,45.87
2018-03-31T14:29:10.212Z,45.60
2018-03-31T14:31:37.228Z,45.10
2018-03-31T14:34:04.240Z,45.17
2018-03-31T14:36:31.248Z,47.43
2018-03-31T14:38:59.021Z,51.67
2018-03-31T14:41:26.041Z,50.40
2018-03-31T14:43:53.854Z,46.10
2018-03-31T14:46:20.859Z,44.53
2018-03-31T14:48:47.856Z,42.53
2018-03-31T14:51:14.890Z,46.80
2018-03-31T14:53:41.894Z,46.70
2018-03-31T14:56:08.965Z,45.07
2018-03-31T14:58:36.730Z,46.37
2018-03-31T15:01:04.508Z,49.47
2018-03-31T15:03:31.560Z,47.60
2018-03-31T15:05:58.563Z,47.87
2018-03-31T15:08:25.571Z,50.43
2018-03-31T15:10:52.591Z,48.70
2018-03-31T15:13:20.432Z,49.93
2018-03-31T15:15:47.441Z,48.47
2018-03-31T15:18:14.448Z,52.07
2018-03-31T15:20:42.216Z,51.50
2018-03-31T15:23:09.223Z,52.67
2018-03-31T15:25:36.267Z,50.53
2018-03-31T15:28:03.259Z,49.47
2018-03-31T15:30:30.275Z,48.73
2018-03-31T15:32:57.311Z,53.20
2018-03-31T15:35:24.334Z,52.33
2018-03-31T15:37:51.355Z,53.60
2018-03-31T15:40:18.359Z,57.30
2018-03-31T15:42:45.363Z,52.60
2018-03-31T15:45:12.392Z,49.73
2018-03-31T15:47:39.388Z,51.13
2018-03-31T15:50:06.395Z,49.03
2018-03-31T15:52:33.400Z,46.93
2018-03-31T15:55:00.546Z,49.63
2018-03-31T15:57:28.420Z,57.70
2018-03-31T15:59:56.196Z,59.70
2018-03-31T16:02:24.094Z,62.43
2018-03-31T16:04:51.125Z,65.07
2018-03-31T16:07:18.172Z,59.40
2018-03-31T16:09:45.312Z,60.23
2018-03-31T16:12:13.293Z,57.07
2018-03-31T16:14:40.450Z,54.60
2018-03-31T16:17:07.854Z,57.53
2018-03-31T16:19:36.987Z,57.00
2018-03-31T16:22:05.108Z,55.50
2018-03-31T16:24:32.396Z,53.90
2018-03-31T16:26:59.482Z,53.47
2018-03-31T16:29:26.485Z,59.27
2018-03-31T16:31:55.022Z,56.60
2018-03-31T16:34:22.040Z,57.70
2018-03-31T16:36:49.114Z,60.93
2018-03-31T16:39:16.853Z,56.60
2018-03-31T16:41:45.782Z,60.90
2018-03-31T16:44:13.266Z,60.53
2018-03-31T16:46:41.620Z,62.47
2018-03-31T16:49:09.703Z,66.40
2018-03-31T16:51:36.810Z,64.80
2018-03-31T16:54:04.269Z,59.23
2018-03-31T16:56:31.294Z,58.77
2018-03-31T16:58:59.636Z,57.47
2018-03-31T17:01:26.839Z,60.53
2018-03-31T17:03:54.719Z,60.80
2018-03-31T17:06:21.847Z,62.97
2018-03-31T17:08:50.386Z,63.87
2018-03-31T17:11:18.398Z,61.30
2018-03-31T17:13:45.532Z,68.27
2018-03-31T17:16:13.736Z,64.83
2018-03-31T17:18:40.907Z,68.23
2018-03-31T17:21:08.879Z,66.30
2018-03-31T17:23:35.895Z,66.73
2018-03-31T17:26:03.693Z,66.00
2018-03-31T17:28:34.259Z,68.03
2018-03-31T17:31:01.327Z,78.93
2018-03-31T17:33:29.136Z,65.93
2018-03-31T17:35:56.177Z,70.60
2018-03-31T17:38:23.255Z,71.27
2018-03-31T17:40:50.403Z,69.63
2018-03-31T17:43:17.498Z,69.73
2018-03-31T17:45:45.301Z,70.73
2018-03-31T17:48:12.341Z,71.17
2018-03-31T17:50:39.388Z,70.43
2018-03-31T17:53:06.424Z,71.80
2018-03-31T17:55:33.452Z,77.00
2018-03-31T17:58:01.243Z,74.10
2018-03-31T18:00:28.262Z,72.93
2018-03-31T18:02:56.059Z,70.20
2018-03-31T18:05:23.083Z,84.07
2018-03-31T18:07:50.866Z,80.50
2018-03-31T18:10:18.089Z,87.70
2018-03-31T18:12:45.885Z,82.70
2018-03-31T18:15:12.890Z,88.47
2018-03-31T18:17:39.892Z,98.03
2018-03-31T18:20:07.393Z,98.17
2018-03-31T18:22:34.414Z,96.90
2018-03-31T18:25:01.442Z,107.93
2018-03-31T18:27:28.463Z,110.67
2018-03-31T18:29:56.249Z,125.17
2018-03-31T18:32:23.273Z,136.93
2018-03-31T18:34:51.035Z,164.73
2018-03-31T18:37:19.187Z,177.57
2018-03-31T18:39:46.197Z,168.90
2018-03-31T18:42:13.218Z,152.40
2018-03-31T18:44:40.330Z,132.77
2018-03-31T18:47:07.387Z,121.70
2018-03-31T18:49:34.376Z,137.17
2018-03-31T18:52:01.400Z,117.90
2018-03-31T18:54:29.180Z,122.37
2018-03-31T18:56:56.260Z,110.63
2018-03-31T18:59:23.265Z,111.43
2018-03-31T19:01:50.278Z,112.10
2018-03-31T19:04:17.409Z,138.93
2018-03-31T19:06:44.390Z,113.27
2018-03-31T19:09:11.412Z,110.97
2018-03-31T19:11:38.483Z,107.83
2018-03-31T19:14:06.257Z,124.67
2018-03-31T19:16:41.668Z,135.57
2018-03-31T19:19:08.686Z,140.27
2018-03-31T19:21:35.703Z,148.83
2018-03-31T19:24:02.745Z,162.97
2018-03-31T19:26:30.523Z,182.83
2018-03-31T19:28:57.536Z,192.70
2018-03-31T19:31:24.571Z,197.87
2018-03-31T19:33:51.606Z,192.10
2018-03-31T19:36:18.652Z,166.17
2018-03-31T19:38:45.657Z,151.60
2018-03-31T19:41:12.674Z,155.07
2018-03-31T19:43:39.683Z,159.13
2018-03-31T19:46:06.699Z,178.43
2018-03-31T19:48:33.726Z,184.10
2018-03-31T19:51:01.648Z,189.87
2018-03-31T19:53:28.679Z,147.90
2018-03-31T19:55:56.553Z,120.23
2018-03-31T19:58:24.284Z,102.07
2018-03-31T20:00:51.416Z,103.73
2018-03-31T20:03:18.418Z,94.90
2018-03-31T20:05:45.428Z,103.87
2018-03-31T20:08:13.207Z,108.80
2018-03-31T20:10:40.243Z,102.57
2018-03-31T20:13:08.016Z,96.03
2018-03-31T20:15:35.028Z,102.30
2018-03-31T20:18:02.059Z,108.03
2018-03-31T20:20:29.085Z,106.10
2018-03-31T20:22:56.084Z,111.07
2018-03-31T20:25:23.890Z,117.70
2018-03-31T20:27:50.896Z,133.50
2018-03-31T20:30:18.735Z,165.87
2018-03-31T20:32:46.641Z,143.80
2018-03-31T20:35:14.493Z,124.50
2018-03-31T20:37:41.542Z,122.70
2018-03-31T20:40:09.331Z,119.03
2018-03-31T20:42:36.452Z,119.40
2018-03-31T20:45:04.235Z,122.13
2018-03-31T20:47:32.023Z,135.50
2018-03-31T20:49:59.792Z,177.17
2018-03-31T20:52:26.818Z,183.20
2018-03-31T20:54:54.587Z,166.60
2018-03-31T20:57:21.616Z,144.40
2018-03-31T20:59:49.419Z,97.23
2018-03-31T21:02:16.436Z,101.37
2018-03-31T21:04:44.239Z,104.10
2018-03-31T21:07:11.285Z,97.40
2018-03-31T21:09:38.323Z,104.07
2018-03-31T21:12:05.330Z,109.60
2018-03-31T21:14:33.125Z,109.43
2018-03-31T21:17:00.157Z,110.50
2018-03-31T21:19:27.921Z,117.53
2018-03-31T21:21:55.723Z,136.10
2018-03-31T21:24:22.752Z,153.83
2018-03-31T21:26:49.816Z,133.03
2018-03-31T21:29:16.842Z,111.27
2018-03-31T21:31:43.858Z,98.87
2018-03-31T21:34:11.641Z,110.68
2018-03-31T21:36:39.437Z,109.27
2018-03-31T21:39:06.452Z,120.60
2018-03-31T21:41:34.231Z,133.70
2018-03-31T21:44:01.231Z,127.03
2018-03-31T21:46:28.271Z,106.33
2018-03-31T21:48:55.389Z,104.17
2018-03-31T21:51:22.398Z,104.83
2018-03-31T21:53:50.181Z,89.77
2018-03-31T21:56:17.192Z,72.10
2018-03-31T21:58:44.267Z,65.97
2018-03-31T22:01:12.168Z,55.40
2018-03-31T22:03:39.171Z,58.70
2018-03-31T22:06:06.203Z,52.90
2018-03-31T22:08:33.221Z,50.17
2018-03-31T22:11:00.246Z,57.13
2018-03-31T22:13:32.791Z,57.03
2018-03-31T22:15:59.822Z,60.37
2018-03-31T22:18:26.827Z,55.80
2018-03-31T22:20:53.854Z,51.87
2018-03-31T22:23:20.855Z,53.53
2018-03-31T22:25:47.876Z,54.53
2018-03-31T22:28:14.887Z,53.47
2018-03-31T22:30:42.693Z,66.03
2018-03-31T22:33:09.747Z,63.80
2018-03-31T22:35:36.814Z,64.60
2018-03-31T22:38:03.828Z,67.13
2018-03-31T22:40:30.844Z,65.40
2018-03-31T22:42:58.614Z,69.90
2018-03-31T22:45:25.776Z,74.20
2018-03-31T22:47:52.868Z,65.77
2018-03-31T22:50:19.897Z,62.60
2018-03-31T22:52:46.908Z,70.50
2018-03-31T22:55:13.913Z,69.97
2018-03-31T22:57:40.936Z,70.33
2018-03-31T23:00:07.963Z,63.40
2018-03-31T23:02:34.982Z,63.75
2018-03-31T23:05:02.768Z,66.00
2018-03-31T23:07:29.791Z,73.82
2018-03-31T23:09:56.811Z,66.90
2018-03-31T23:12:23.844Z,68.75
2018-03-31T23:14:50.889Z,66.32
2018-03-31T23:17:17.921Z,72.25
2018-03-31T23:19:44.924Z,69.03
2018-03-31T23:22:11.998Z,65.30
2018-03-31T23:24:39.003Z,57.42
2018-03-31T23:27:06.030Z,69.18
2018-03-31T23:29:33.088Z,62.55
2018-03-31T23:32:00.944Z,64.12
2018-03-31T23:34:27.958Z,63.20
2018-03-31T23:36:54.974Z,59.90
2018-03-31T23:39:22.780Z,61.03
2018-03-31T23:41:49.897Z,62.67
2018-03-31T23:44:17.764Z,62.78
2018-03-31T23:46:44.873Z,59.25
2018-03-31T23:49:12.004Z,56.22
2018-03-31T23:51:39.148Z,54.90
2018-03-31T23:54:06.251Z,51.97
2018-03-31T23:56:34.124Z,57.13
2018-03-31T23:59:02.008Z,53.00
